createdAt,value
2023-02-04T00:03:54.315Z,8.96
2023-02-04T00:08:55.812Z,8.64
2023-02-04T00:13:57.453Z,8.86
2023-02-04T00:18:59.055Z,8.91
2023-02-04T00:24:00.733Z,8.83
2023-02-04T00:29:02.417Z,8.96
2023-02-04T00:34:04.003Z,8.96
2023-02-04T00:39:05.600Z,8.90
2023-02-04T00:44:07.151Z,8.87
2023-02-04T00:49:10.067Z,8.89
2023-02-04T00:54:12.206Z,8.84
2023-02-04T00:59:13.786Z,8.85
2023-02-04T01:04:15.328Z,8.66
2023-02-04T01:09:16.804Z,8.70
2023-02-04T01:14:18.447Z,8.54
2023-02-04T01:19:19.987Z,8.42
2023-02-04T01:24:21.562Z,8.43
2023-02-04T01:29:23.086Z,8.28
2023-02-04T01:34:24.598Z,8.20
2023-02-04T01:39:26.141Z,8.06
2023-02-04T01:44:28.721Z,7.94
2023-02-04T01:49:30.157Z,7.88
2023-02-04T01:54:32.198Z,7.77
2023-02-04T01:59:34.022Z,7.80
2023-02-04T02:04:35.769Z,7.75
2023-02-04T02:09:37.306Z,7.85
2023-02-04T02:14:38.833Z,7.69
2023-02-04T02:19:42.037Z,7.85
2023-02-04T02:24:43.596Z,7.77
2023-02-04T02:29:45.223Z,7.75
2023-02-04T02:34:47.037Z,7.72
2023-02-04T02:39:48.664Z,7.75
2023-02-04T02:44:50.930Z,7.81
2023-02-04T02:49:54.000Z,7.79
2023-02-04T02:54:55.663Z,7.78
2023-02-04T02:59:57.192Z,7.81
2023-02-04T03:04:59.319Z,7.86
2023-02-04T03:10:00.956Z,7.87
2023-02-04T03:15:04.147Z,7.86
2023-02-04T03:20:06.254Z,7.76
2023-02-04T03:25:08.063Z,7.68
2023-02-04T03:30:10.131Z,7.70
2023-02-04T03:35:11.733Z,7.54
2023-02-04T03:40:13.633Z,7.57
2023-02-04T03:45:16.274Z,7.46
2023-02-04T03:50:18.207Z,7.43
2023-02-04T03:55:20.165Z,7.49
2023-02-04T04:00:21.700Z,7.46
2023-02-04T04:05:23.490Z,7.53
2023-02-04T04:10:25.432Z,7.65
2023-02-04T04:15:27.068Z,7.64
2023-02-04T04:20:28.707Z,7.65
2023-02-04T04:25:30.245Z,7.68
2023-02-04T04:30:31.981Z,7.67
2023-02-04T04:35:33.701Z,7.66
2023-02-04T04:40:35.186Z,7.65
2023-02-04T04:45:36.738Z,7.63
2023-02-04T04:50:38.352Z,7.64
2023-02-04T04:55:40.619Z,7.58
2023-02-04T05:00:42.149Z,7.52
2023-02-04T05:05:43.797Z,7.47
2023-02-04T05:10:45.390Z,7.37
2023-02-04T05:15:46.837Z,7.41
2023-02-04T05:20:48.321Z,7.52
2023-02-04T05:25:49.860Z,7.52
2023-02-04T05:30:51.450Z,7.49
2023-02-04T05:35:53.065Z,7.41
2023-02-04T05:40:54.701Z,7.28
2023-02-04T05:45:56.237Z,7.30
2023-02-04T05:50:57.786Z,7.25
2023-02-04T05:55:59.262Z,7.29
2023-02-04T06:01:02.106Z,7.39
2023-02-04T06:06:03.803Z,7.28
2023-02-04T06:11:06.113Z,7.24
2023-02-04T06:16:07.890Z,7.26
2023-02-04T06:21:09.362Z,7.33
2023-02-04T06:26:11.255Z,7.35
2023-02-04T06:31:12.946Z,7.26
2023-02-04T06:36:14.506Z,7.20
2023-02-04T06:41:16.007Z,7.22
2023-02-04T06:46:17.675Z,7.19
2023-02-04T06:51:19.218Z,7.19
2023-02-04T06:56:20.697Z,7.32
2023-02-04T07:01:22.326Z,7.29
2023-02-04T07:06:23.895Z,7.40
2023-02-04T07:11:25.348Z,7.45
2023-02-04T07:16:26.840Z,7.28
2023-02-04T07:21:28.504Z,7.20
2023-02-04T07:26:30.190Z,7.22
2023-02-04T07:31:31.830Z,7.20
2023-02-04T07:36:33.388Z,7.22
2023-02-04T07:41:36.055Z,7.32
2023-02-04T07:46:37.679Z,7.37
2023-02-04T07:51:39.437Z,7.56
2023-02-04T07:56:40.933Z,7.56
2023-02-04T08:01:42.527Z,7.54
2023-02-04T08:06:44.389Z,7.62
2023-02-04T08:11:46.478Z,7.62
2023-02-04T08:16:48.020Z,7.67
2023-02-04T08:21:49.576Z,7.76
2023-02-04T08:26:51.807Z,7.79
2023-02-04T08:31:53.600Z,7.85
2023-02-04T08:36:55.131Z,7.88
2023-02-04T08:41:56.548Z,7.94
2023-02-04T08:46:58.132Z,7.96
2023-02-04T08:51:59.668Z,7.99
2023-02-04T08:57:01.753Z,8.05
2023-02-04T09:02:03.626Z,8.02
2023-02-04T09:07:07.553Z,8.11
2023-02-04T09:12:09.146Z,8.05
2023-02-04T09:17:10.676Z,8.05
2023-02-04T09:22:12.279Z,8.20
2023-02-04T09:27:13.741Z,8.35
2023-02-04T09:32:15.325Z,8.47
2023-02-04T09:37:16.814Z,8.45
2023-02-04T09:42:19.075Z,8.52
2023-02-04T09:47:24.701Z,8.47
2023-02-04T09:52:27.722Z,8.78
2023-02-04T09:57:29.709Z,8.76
2023-02-04T10:02:32.325Z,8.86
2023-02-04T10:07:34.482Z,8.87
2023-02-04T10:12:36.508Z,8.83
2023-02-04T10:17:38.271Z,8.81
2023-02-04T10:22:40.226Z,8.96
2023-02-04T10:27:53.913Z,9.00
2023-02-04T10:32:55.398Z,8.85
2023-02-04T10:38:05.545Z,8.84
2023-02-04T10:43:17.853Z,9.01
2023-02-04T10:48:20.022Z,9.07
2023-02-04T10:53:23.739Z,9.19
2023-02-04T10:58:29.019Z,9.17
2023-02-04T11:03:31.226Z,9.24
2023-02-04T11:08:36.568Z,9.42
2023-02-04T11:13:45.448Z,9.49
2023-02-04T11:18:48.583Z,9.39
2023-02-04T11:23:51.008Z,9.10
2023-02-04T11:28:58.482Z,9.14
2023-02-04T11:34:14.947Z,9.15
2023-02-04T11:39:17.950Z,9.33
2023-02-04T11:44:19.969Z,9.37
2023-02-04T11:49:23.603Z,9.31
2023-02-04T11:54:25.160Z,9.36
2023-02-04T11:59:26.815Z,9.45
2023-02-04T12:04:28.733Z,9.38
2023-02-04T12:09:32.000Z,9.33
2023-02-04T12:14:36.567Z,9.53
2023-02-04T12:19:38.018Z,9.56
2023-02-04T12:24:39.499Z,9.57
2023-02-04T12:29:41.114Z,9.57
2023-02-04T12:34:42.565Z,9.48
2023-02-04T12:39:43.988Z,9.50
2023-02-04T12:44:45.703Z,9.51
2023-02-04T12:49:47.182Z,9.52
2023-02-04T12:54:48.589Z,9.35
2023-02-04T12:59:50.118Z,9.44
2023-02-04T13:04:52.189Z,9.44
2023-02-04T13:09:53.690Z,9.60
2023-02-04T13:14:55.135Z,9.55
2023-02-04T13:19:56.621Z,9.55
2023-02-04T13:24:58.016Z,9.47
2023-02-04T13:29:59.437Z,9.56
2023-02-04T13:35:00.849Z,9.56
2023-02-04T13:40:02.283Z,9.37
2023-02-04T13:45:04.920Z,9.49
2023-02-04T13:50:07.095Z,9.46
2023-02-04T13:55:08.831Z,9.53
2023-02-04T14:00:10.981Z,9.51
2023-02-04T14:05:12.395Z,9.46
2023-02-04T14:10:13.915Z,9.45
2023-02-04T14:15:15.501Z,9.54
2023-02-04T14:20:17.430Z,9.58
2023-02-04T14:25:18.929Z,9.59
2023-02-04T14:30:23.300Z,9.62
2023-02-04T14:35:25.600Z,9.55
2023-02-04T14:40:27.084Z,9.58
2023-02-04T14:45:28.644Z,9.36
2023-02-04T14:50:30.336Z,9.34
2023-02-04T14:55:31.870Z,9.10
2023-02-04T15:00:33.796Z,8.91
2023-02-04T15:05:35.552Z,8.75
2023-02-04T15:10:37.095Z,8.67
2023-02-04T15:15:38.649Z,8.60
2023-02-04T15:20:40.158Z,8.49
2023-02-04T15:25:41.709Z,8.40
2023-02-04T15:30:43.420Z,8.26
2023-02-04T15:35:44.943Z,8.20
2023-02-04T15:40:50.889Z,8.23
2023-02-04T15:45:52.448Z,8.33
2023-02-04T15:50:54.544Z,8.32
2023-02-04T15:55:57.601Z,8.23
2023-02-04T16:00:59.113Z,8.13
2023-02-04T16:06:00.917Z,7.94
2023-02-04T16:11:02.402Z,7.79
2023-02-04T16:16:03.930Z,7.69
2023-02-04T16:21:05.677Z,7.53
2023-02-04T16:26:07.299Z,7.42
2023-02-04T16:31:08.907Z,7.40
2023-02-04T16:36:10.976Z,7.34
2023-02-04T16:41:14.634Z,7.26
2023-02-04T16:46:16.196Z,7.13
2023-02-04T16:51:17.635Z,7.12
2023-02-04T16:56:19.471Z,7.04
2023-02-04T17:01:20.942Z,7.06
2023-02-04T17:06:22.434Z,6.99
2023-02-04T17:11:25.162Z,6.99
2023-02-04T17:16:27.531Z,6.88
2023-02-04T17:21:30.440Z,6.77
2023-02-04T17:26:33.163Z,6.61
2023-02-04T17:31:35.070Z,6.46
2023-02-04T17:36:36.642Z,6.37
2023-02-04T17:41:38.038Z,6.36
2023-02-04T17:46:39.546Z,6.17
2023-02-04T17:51:40.956Z,6.12
2023-02-04T17:56:45.247Z,6.04
2023-02-04T18:01:46.932Z,5.91
2023-02-04T18:06:52.044Z,5.89
2023-02-04T18:11:53.433Z,5.77
2023-02-04T18:16:58.834Z,5.68
2023-02-04T18:22:00.625Z,5.69
2023-02-04T18:27:20.138Z,5.46
2023-02-04T18:32:33.334Z,5.40
2023-02-04T18:37:36.946Z,5.31
2023-02-04T18:42:43.950Z,5.40
2023-02-04T18:47:46.305Z,5.35
2023-02-04T18:52:47.725Z,5.42
2023-02-04T18:57:49.364Z,5.23
2023-02-04T19:03:18.170Z,5.14
2023-02-04T19:08:30.438Z,5.06
2023-02-04T19:13:40.253Z,5.11
2023-02-04T19:18:41.687Z,4.98
2023-02-04T19:23:43.435Z,4.88
2023-02-04T19:28:44.898Z,4.87
2023-02-04T19:33:48.560Z,4.85
2023-02-04T19:38:55.439Z,4.61
2023-02-04T19:44:29.180Z,4.62
2023-02-04T19:49:36.799Z,4.48
2023-02-04T19:54:39.208Z,4.22
2023-02-04T19:59:40.984Z,4.39
2023-02-04T20:04:47.842Z,4.36
2023-02-04T20:10:01.754Z,4.28
2023-02-04T20:15:12.612Z,4.41
2023-02-04T20:20:29.156Z,4.37
2023-02-04T20:25:42.374Z,4.26
2023-02-04T20:30:44.647Z,4.20
2023-02-04T20:35:51.883Z,4.25
2023-02-04T20:40:53.367Z,4.10
2023-02-04T20:46:02.688Z,4.11
2023-02-04T20:51:05.362Z,4.03
2023-02-04T20:56:38.493Z,4.20
2023-02-04T21:01:49.950Z,4.03
2023-02-04T21:06:54.299Z,4.02
2023-02-04T21:11:56.926Z,4.15
2023-02-04T21:16:58.472Z,4.17
2023-02-04T21:21:59.931Z,3.99
2023-02-04T21:27:01.715Z,3.83
2023-02-04T21:32:03.224Z,4.00
2023-02-04T21:37:04.635Z,4.18
2023-02-04T21:42:06.046Z,4.20
2023-02-04T21:47:07.688Z,4.17
2023-02-04T21:52:09.441Z,4.03
2023-02-04T21:57:10.992Z,3.79
2023-02-04T22:02:12.445Z,3.97
2023-02-04T22:07:13.912Z,4.03
2023-02-04T22:12:16.765Z,4.29
2023-02-04T22:17:18.206Z,4.17
2023-02-04T22:22:20.006Z,4.04
2023-02-04T22:27:21.383Z,4.04
2023-02-04T22:32:23.588Z,3.90
2023-02-04T22:37:25.681Z,3.83
2023-02-04T22:42:27.347Z,4.00
2023-02-04T22:47:28.907Z,4.14
2023-02-04T22:52:30.422Z,4.24
2023-02-04T22:57:31.867Z,4.22
2023-02-04T23:02:33.299Z,4.13
2023-02-04T23:07:35.078Z,4.14
2023-02-04T23:12:36.658Z,4.09
2023-02-04T23:17:38.340Z,4.26
2023-02-04T23:22:40.166Z,4.21
2023-02-04T23:27:41.798Z,4.35
2023-02-04T23:32:43.590Z,4.36
2023-02-04T23:37:45.378Z,4.25
2023-02-04T23:42:46.857Z,4.34
2023-02-04T23:47:48.369Z,4.24
2023-02-04T23:52:50.034Z,4.46
2023-02-04T23:57:51.530Z,4.50
